sensor_id;sensor_type;location;lat;lon;timestamp;temperature;humidity
12315;DHT22;23886;46.614;14.276;2023-03-31T00:02:02;7.70;99.90
12315;DHT22;23886;46.614;14.276;2023-03-31T00:04:32;7.60;99.90
12315;DHT22;23886;46.614;14.276;2023-03-31T00:06:59;7.60;99.90
12315;DHT22;23886;46.614;14.276;2023-03-31T00:09:26;7.60;99.90
12315;DHT22;23886;46.614;14.276;2023-03-31T00:11:54;7.50;99.90
12315;DHT22;23886;46.614;14.276;2023-03-31T00:14:21;7.50;99.90
12315;DHT22;23886;46.614;14.276;2023-03-31T00:16:49;7.40;99.90
12315;DHT22;23886;46.614;14.276;2023-03-31T00:19:16;7.40;99.90
12315;DHT22;23886;46.614;14.276;2023-03-31T00:21:46;7.40;99.90
12315;DHT22;23886;46.614;14.276;2023-03-31T00:24:16;7.30;99.90
12315;DHT22;23886;46.614;14.276;2023-03-31T00:26:43;7.30;99.90
12315;DHT22;23886;46.614;14.276;2023-03-31T00:29:12;7.40;99.90
12315;DHT22;23886;46.614;14.276;2023-03-31T00:31:39;7.30;99.90
12315;DHT22;23886;46.614;14.276;2023-03-31T00:34:07;7.30;99.90
12315;DHT22;23886;46.614;14.276;2023-03-31T00:36:34;7.30;99.90
12315;DHT22;23886;46.614;14.276;2023-03-31T00:39:10;7.20;99.90
12315;DHT22;23886;46.614;14.276;2023-03-31T00:41:37;7.20;99.90
12315;DHT22;23886;46.614;14.276;2023-03-31T00:44:08;7.20;99.90
12315;DHT22;23886;46.614;14.276;2023-03-31T00:46:41;7.20;99.90
12315;DHT22;23886;46.614;14.276;2023-03-31T00:49:15;7.10;99.90
12315;DHT22;23886;46.614;14.276;2023-03-31T00:51:48;7.00;99.90
12315;DHT22;23886;46.614;14.276;2023-03-31T00:54:17;7.00;99.90
12315;DHT22;23886;46.614;14.276;2023-03-31T00:56:48;7.10;99.90
12315;DHT22;23886;46.614;14.276;2023-03-31T00:59:18;7.00;99.90
12315;DHT22;23886;46.614;14.276;2023-03-31T01:01:46;6.90;99.90
12315;DHT22;23886;46.614;14.276;2023-03-31T01:04:18;6.90;99.90
12315;DHT22;23886;46.614;14.276;2023-03-31T01:06:52;7.00;99.90
12315;DHT22;23886;46.614;14.276;2023-03-31T01:09:28;7.00;99.90
12315;DHT22;23886;46.614;14.276;2023-03-31T01:12:02;7.00;99.90
12315;DHT22;23886;46.614;14.276;2023-03-31T01:14:31;7.00;99.90
12315;DHT22;23886;46.614;14.276;2023-03-31T01:16:58;7.00;99.90
12315;DHT22;23886;46.614;14.276;2023-03-31T01:19:35;7.00;99.90
12315;DHT22;23886;46.614;14.276;2023-03-31T01:28:28;6.80;99.90
12315;DHT22;23886;46.614;14.276;2023-03-31T01:31:36;6.70;99.90
12315;DHT22;23886;46.614;14.276;2023-03-31T01:40:24;6.40;99.90
12315;DHT22;23886;46.614;14.276;2023-03-31T01:42:58;6.40;99.90
12315;DHT22;23886;46.614;14.276;2023-03-31T01:45:39;6.20;99.90
12315;DHT22;23886;46.614;14.276;2023-03-31T01:48:12;6.10;99.90
12315;DHT22;23886;46.614;14.276;2023-03-31T01:50:45;6.20;99.90
12315;DHT22;23886;46.614;14.276;2023-03-31T01:53:17;6.20;99.90
12315;DHT22;23886;46.614;14.276;2023-03-31T01:55:51;6.10;99.90
12315;DHT22;23886;46.614;14.276;2023-03-31T01:58:25;5.90;99.90
12315;DHT22;23886;46.614;14.276;2023-03-31T02:00:59;5.80;99.90
12315;DHT22;23886;46.614;14.276;2023-03-31T02:03:32;5.80;99.90
12315;DHT22;23886;46.614;14.276;2023-03-31T02:06:06;5.70;99.90
12315;DHT22;23886;46.614;14.276;2023-03-31T02:08:38;5.50;99.90
12315;DHT22;23886;46.614;14.276;2023-03-31T02:11:09;5.50;99.90
12315;DHT22;23886;46.614;14.276;2023-03-31T02:13:38;5.40;99.90
12315;DHT22;23886;46.614;14.276;2023-03-31T02:16:09;5.50;99.90
12315;DHT22;23886;46.614;14.276;2023-03-31T02:18:39;5.50;99.90
12315;DHT22;23886;46.614;14.276;2023-03-31T02:21:07;5.70;99.90
12315;DHT22;23886;46.614;14.276;2023-03-31T02:23:36;5.70;99.90
12315;DHT22;23886;46.614;14.276;2023-03-31T02:26:09;5.60;99.90
12315;DHT22;23886;46.614;14.276;2023-03-31T02:28:38;5.40;99.90
12315;DHT22;23886;46.614;14.276;2023-03-31T02:31:12;5.40;99.90
12315;DHT22;23886;46.614;14.276;2023-03-31T02:33:41;5.40;99.90
12315;DHT22;23886;46.614;14.276;2023-03-31T02:36:08;5.40;99.90
12315;DHT22;23886;46.614;14.276;2023-03-31T02:38:38;5.30;99.90
12315;DHT22;23886;46.614;14.276;2023-03-31T02:41:09;5.20;99.90
12315;DHT22;23886;46.614;14.276;2023-03-31T02:43:36;5.20;99.90
12315;DHT22;23886;46.614;14.276;2023-03-31T02:46:04;5.30;99.90
12315;DHT22;23886;46.614;14.276;2023-03-31T02:48:33;5.20;99.90
12315;DHT22;23886;46.614;14.276;2023-03-31T02:54:34;5.00;99.90
12315;DHT22;23886;46.614;14.276;2023-03-31T02:57:22;5.00;99.90
12315;DHT22;23886;46.614;14.276;2023-03-31T03:00:00;5.00;99.90
12315;DHT22;23886;46.614;14.276;2023-03-31T03:02:38;5.00;99.90
12315;DHT22;23886;46.614;14.276;2023-03-31T03:05:17;4.80;99.90
12315;DHT22;23886;46.614;14.276;2023-03-31T03:07:48;4.90;99.90
12315;DHT22;23886;46.614;14.276;2023-03-31T03:10:26;4.80;99.90
12315;DHT22;23886;46.614;14.276;2023-03-31T03:12:57;4.80;99.90
12315;DHT22;23886;46.614;14.276;2023-03-31T03:15:31;4.90;99.90
12315;DHT22;23886;46.614;14.276;2023-03-31T03:17:59;4.90;99.90
12315;DHT22;23886;46.614;14.276;2023-03-31T03:20:26;4.80;99.90
12315;DHT22;23886;46.614;14.276;2023-03-31T03:22:53;4.90;99.90
12315;DHT22;23886;46.614;14.276;2023-03-31T03:25:20;5.00;99.90
12315;DHT22;23886;46.614;14.276;2023-03-31T03:27:48;5.00;99.90
12315;DHT22;23886;46.614;14.276;2023-03-31T03:30:19;4.80;99.90
12315;DHT22;23886;46.614;14.276;2023-03-31T03:32:46;4.80;99.90
12315;DHT22;23886;46.614;14.276;2023-03-31T03:35:13;4.70;99.90
12315;DHT22;23886;46.614;14.276;2023-03-31T03:37:40;4.70;99.90
12315;DHT22;23886;46.614;14.276;2023-03-31T03:40:08;4.80;99.90
12315;DHT22;23886;46.614;14.276;2023-03-31T03:42:35;4.60;99.90
12315;DHT22;23886;46.614;14.276;2023-03-31T03:45:03;4.60;99.90
12315;DHT22;23886;46.614;14.276;2023-03-31T03:47:32;4.70;99.90
12315;DHT22;23886;46.614;14.276;2023-03-31T03:49:59;4.60;99.90
12315;DHT22;23886;46.614;14.276;2023-03-31T03:52:26;4.50;99.90
12315;DHT22;23886;46.614;14.276;2023-03-31T03:54:53;4.40;99.90
12315;DHT22;23886;46.614;14.276;2023-03-31T03:57:20;4.40;99.90
12315;DHT22;23886;46.614;14.276;2023-03-31T03:59:47;4.50;99.90
12315;DHT22;23886;46.614;14.276;2023-03-31T04:02:14;4.40;99.90
12315;DHT22;23886;46.614;14.276;2023-03-31T04:04:42;4.50;99.90
12315;DHT22;23886;46.614;14.276;2023-03-31T04:07:09;4.50;99.90
12315;DHT22;23886;46.614;14.276;2023-03-31T04:09:36;4.60;99.90
12315;DHT22;23886;46.614;14.276;2023-03-31T04:12:03;4.50;99.90
12315;DHT22;23886;46.614;14.276;2023-03-31T04:14:30;4.50;99.90
12315;DHT22;23886;46.614;14.276;2023-03-31T04:16:57;4.60;99.90
12315;DHT22;23886;46.614;14.276;2023-03-31T04:19:24;4.60;99.90
12315;DHT22;23886;46.614;14.276;2023-03-31T04:21:53;4.70;99.90
12315;DHT22;23886;46.614;14.276;2023-03-31T04:24:27;4.70;99.90
12315;DHT22;23886;46.614;14.276;2023-03-31T04:26:58;4.80;99.90
12315;DHT22;23886;46.614;14.276;2023-03-31T04:29:25;4.80;99.90
12315;DHT22;23886;46.614;14.276;2023-03-31T04:31:53;4.80;99.90
12315;DHT22;23886;46.614;14.276;2023-03-31T04:34:24;4.90;99.90
12315;DHT22;23886;46.614;14.276;2023-03-31T04:37:01;5.00;99.90
12315;DHT22;23886;46.614;14.276;2023-03-31T04:39:28;5.20;99.90
12315;DHT22;23886;46.614;14.276;2023-03-31T04:41:56;5.20;99.90
12315;DHT22;23886;46.614;14.276;2023-03-31T04:44:24;5.30;99.90
12315;DHT22;23886;46.614;14.276;2023-03-31T04:46:51;5.40;99.90
12315;DHT22;23886;46.614;14.276;2023-03-31T04:49:18;5.40;99.90
12315;DHT22;23886;46.614;14.276;2023-03-31T04:51:45;5.50;99.90
12315;DHT22;23886;46.614;14.276;2023-03-31T04:54:14;5.60;99.90
12315;DHT22;23886;46.614;14.276;2023-03-31T04:56:41;5.60;99.90
12315;DHT22;23886;46.614;14.276;2023-03-31T04:59:08;5.60;99.90
12315;DHT22;23886;46.614;14.276;2023-03-31T05:01:35;5.30;99.90
12315;DHT22;23886;46.614;14.276;2023-03-31T05:04:03;5.20;99.90
12315;DHT22;23886;46.614;14.276;2023-03-31T05:06:30;5.10;99.90
12315;DHT22;23886;46.614;14.276;2023-03-31T05:08:57;5.10;99.90
12315;DHT22;23886;46.614;14.276;2023-03-31T05:11:25;5.10;99.90
12315;DHT22;23886;46.614;14.276;2023-03-31T05:13:53;5.10;99.90
12315;DHT22;23886;46.614;14.276;2023-03-31T05:16:20;5.20;99.90
12315;DHT22;23886;46.614;14.276;2023-03-31T05:18:47;5.30;99.90
12315;DHT22;23886;46.614;14.276;2023-03-31T05:21:15;5.40;99.90
12315;DHT22;23886;46.614;14.276;2023-03-31T05:23:43;5.70;99.90
12315;DHT22;23886;46.614;14.276;2023-03-31T05:26:11;5.60;99.90
12315;DHT22;23886;46.614;14.276;2023-03-31T05:28:39;5.80;99.90
12315;DHT22;23886;46.614;14.276;2023-03-31T05:31:08;5.80;99.90
12315;DHT22;23886;46.614;14.276;2023-03-31T05:33:36;6.00;99.90
12315;DHT22;23886;46.614;14.276;2023-03-31T05:36:07;6.10;99.90
12315;DHT22;23886;46.614;14.276;2023-03-31T05:38:34;6.10;99.90
12315;DHT22;23886;46.614;14.276;2023-03-31T05:41:01;5.90;99.90
12315;DHT22;23886;46.614;14.276;2023-03-31T05:43:28;6.00;99.90
12315;DHT22;23886;46.614;14.276;2023-03-31T05:45:57;6.20;99.90
12315;DHT22;23886;46.614;14.276;2023-03-31T05:48:24;6.20;99.90
12315;DHT22;23886;46.614;14.276;2023-03-31T05:50:52;6.30;99.90
12315;DHT22;23886;46.614;14.276;2023-03-31T05:53:21;6.00;99.90
12315;DHT22;23886;46.614;14.276;2023-03-31T05:55:48;6.10;99.90
12315;DHT22;23886;46.614;14.276;2023-03-31T05:58:15;6.10;99.90
12315;DHT22;23886;46.614;14.276;2023-03-31T06:00:42;6.00;99.90
12315;DHT22;23886;46.614;14.276;2023-03-31T06:03:11;6.00;99.90
12315;DHT22;23886;46.614;14.276;2023-03-31T06:05:38;6.10;99.90
12315;DHT22;23886;46.614;14.276;2023-03-31T06:08:06;6.40;99.90
12315;DHT22;23886;46.614;14.276;2023-03-31T06:10:33;6.40;99.90
12315;DHT22;23886;46.614;14.276;2023-03-31T06:13:00;6.50;99.90
12315;DHT22;23886;46.614;14.276;2023-03-31T06:15:27;6.40;99.90
12315;DHT22;23886;46.614;14.276;2023-03-31T06:17:54;6.60;99.90
12315;DHT22;23886;46.614;14.276;2023-03-31T06:20:23;6.60;99.90
12315;DHT22;23886;46.614;14.276;2023-03-31T06:22:50;6.60;99.90
12315;DHT22;23886;46.614;14.276;2023-03-31T06:25:17;6.70;99.90
12315;DHT22;23886;46.614;14.276;2023-03-31T06:27:44;6.80;99.90
12315;DHT22;23886;46.614;14.276;2023-03-31T06:30:12;6.90;99.90
12315;DHT22;23886;46.614;14.276;2023-03-31T06:32:39;6.80;99.90
12315;DHT22;23886;46.614;14.276;2023-03-31T06:35:06;6.70;99.90
12315;DHT22;23886;46.614;14.276;2023-03-31T06:37:35;6.60;99.90
12315;DHT22;23886;46.614;14.276;2023-03-31T06:40:02;6.70;99.90
12315;DHT22;23886;46.614;14.276;2023-03-31T06:42:29;6.60;99.90
12315;DHT22;23886;46.614;14.276;2023-03-31T06:44:56;6.70;99.90
12315;DHT22;23886;46.614;14.276;2023-03-31T06:47:23;6.90;99.90
12315;DHT22;23886;46.614;14.276;2023-03-31T06:49:50;6.90;99.90
12315;DHT22;23886;46.614;14.276;2023-03-31T06:52:17;7.00;99.90
12315;DHT22;23886;46.614;14.276;2023-03-31T06:54:46;7.00;99.90
12315;DHT22;23886;46.614;14.276;2023-03-31T06:57:13;7.10;99.90
12315;DHT22;23886;46.614;14.276;2023-03-31T06:59:40;7.30;99.90
12315;DHT22;23886;46.614;14.276;2023-03-31T07:02:08;7.60;99.90
12315;DHT22;23886;46.614;14.276;2023-03-31T07:04:36;7.70;99.90
12315;DHT22;23886;46.614;14.276;2023-03-31T07:07:03;7.90;99.90
12315;DHT22;23886;46.614;14.276;2023-03-31T07:09:30;8.00;99.90
12315;DHT22;23886;46.614;14.276;2023-03-31T07:11:58;8.20;99.90
12315;DHT22;23886;46.614;14.276;2023-03-31T07:14:26;8.10;99.90
12315;DHT22;23886;46.614;14.276;2023-03-31T07:16:53;8.20;99.90
12315;DHT22;23886;46.614;14.276;2023-03-31T07:19:20;8.30;99.90
12315;DHT22;23886;46.614;14.276;2023-03-31T07:21:47;8.80;99.90
12315;DHT22;23886;46.614;14.276;2023-03-31T07:24:14;8.60;99.90
12315;DHT22;23886;46.614;14.276;2023-03-31T07:26:41;8.50;99.90
12315;DHT22;23886;46.614;14.276;2023-03-31T07:29:10;8.60;99.90
12315;DHT22;23886;46.614;14.276;2023-03-31T07:31:37;8.80;99.90
12315;DHT22;23886;46.614;14.276;2023-03-31T07:34:04;8.40;99.90
12315;DHT22;23886;46.614;14.276;2023-03-31T07:36:31;8.70;99.90
12315;DHT22;23886;46.614;14.276;2023-03-31T07:38:58;8.90;99.90
12315;DHT22;23886;46.614;14.276;2023-03-31T07:41:25;8.90;99.90
12315;DHT22;23886;46.614;14.276;2023-03-31T07:43:52;8.80;99.90
12315;DHT22;23886;46.614;14.276;2023-03-31T07:46:22;8.90;99.90
12315;DHT22;23886;46.614;14.276;2023-03-31T07:48:50;8.90;99.90
12315;DHT22;23886;46.614;14.276;2023-03-31T07:51:19;8.80;99.90
12315;DHT22;23886;46.614;14.276;2023-03-31T07:53:47;8.80;99.90
12315;DHT22;23886;46.614;14.276;2023-03-31T07:56:16;8.80;99.90
12315;DHT22;23886;46.614;14.276;2023-03-31T07:58:44;8.70;99.90
12315;DHT22;23886;46.614;14.276;2023-03-31T08:01:13;8.80;99.90
12315;DHT22;23886;46.614;14.276;2023-03-31T08:03:44;9.30;99.90
12315;DHT22;23886;46.614;14.276;2023-03-31T08:06:11;9.30;99.90
12315;DHT22;23886;46.614;14.276;2023-03-31T08:08:38;9.20;99.90
12315;DHT22;23886;46.614;14.276;2023-03-31T08:11:07;9.50;99.90
12315;DHT22;23886;46.614;14.276;2023-03-31T08:13:34;9.60;99.90
12315;DHT22;23886;46.614;14.276;2023-03-31T08:16:01;9.90;99.90
12315;DHT22;23886;46.614;14.276;2023-03-31T08:18:28;10.40;99.90
12315;DHT22;23886;46.614;14.276;2023-03-31T08:20:57;10.30;99.90
12315;DHT22;23886;46.614;14.276;2023-03-31T08:23:24;10.20;99.90
12315;DHT22;23886;46.614;14.276;2023-03-31T08:25:51;9.90;99.90
12315;DHT22;23886;46.614;14.276;2023-03-31T08:28:18;10.30;99.90
12315;DHT22;23886;46.614;14.276;2023-03-31T08:30:45;10.20;99.90
12315;DHT22;23886;46.614;14.276;2023-03-31T08:33:12;10.40;99.90
12315;DHT22;23886;46.614;14.276;2023-03-31T08:35:39;10.90;99.90
12315;DHT22;23886;46.614;14.276;2023-03-31T08:38:08;10.90;99.90
12315;DHT22;23886;46.614;14.276;2023-03-31T08:40:35;11.10;99.90
12315;DHT22;23886;46.614;14.276;2023-03-31T08:43:11;11.30;99.90
12315;DHT22;23886;46.614;14.276;2023-03-31T08:45:45;11.30;99.90
12315;DHT22;23886;46.614;14.276;2023-03-31T08:48:20;11.90;99.90
12315;DHT22;23886;46.614;14.276;2023-03-31T08:50:52;12.00;99.90
12315;DHT22;23886;46.614;14.276;2023-03-31T08:53:25;11.30;99.90
12315;DHT22;23886;46.614;14.276;2023-03-31T08:55:55;11.60;99.90
12315;DHT22;23886;46.614;14.276;2023-03-31T08:58:34;11.70;99.90
12315;DHT22;23886;46.614;14.276;2023-03-31T09:01:11;11.40;99.90
12315;DHT22;23886;46.614;14.276;2023-03-31T09:03:48;11.50;99.90
12315;DHT22;23886;46.614;14.276;2023-03-31T09:06:21;11.90;99.90
12315;DHT22;23886;46.614;14.276;2023-03-31T09:08:51;12.00;99.90
12315;DHT22;23886;46.614;14.276;2023-03-31T09:11:29;12.00;99.90
12315;DHT22;23886;46.614;14.276;2023-03-31T09:14:21;11.60;99.90
12315;DHT22;23886;46.614;14.276;2023-03-31T09:16:56;12.10;99.90
12315;DHT22;23886;46.614;14.276;2023-03-31T09:19:35;12.30;99.90
12315;DHT22;23886;46.614;14.276;2023-03-31T09:22:05;12.70;99.90
12315;DHT22;23886;46.614;14.276;2023-03-31T09:24:47;12.30;99.90
12315;DHT22;23886;46.614;14.276;2023-03-31T09:27:16;12.60;99.90
12315;DHT22;23886;46.614;14.276;2023-03-31T09:29:46;12.50;99.90
12315;DHT22;23886;46.614;14.276;2023-03-31T09:32:15;12.50;99.90
12315;DHT22;23886;46.614;14.276;2023-03-31T09:34:43;12.30;99.90
12315;DHT22;23886;46.614;14.276;2023-03-31T09:37:11;12.80;99.90
12315;DHT22;23886;46.614;14.276;2023-03-31T09:39:40;12.30;99.90
12315;DHT22;23886;46.614;14.276;2023-03-31T09:42:10;12.90;99.90
12315;DHT22;23886;46.614;14.276;2023-03-31T09:44:39;12.50;99.90
12315;DHT22;23886;46.614;14.276;2023-03-31T09:47:12;12.30;99.90
12315;DHT22;23886;46.614;14.276;2023-03-31T09:49:42;12.10;99.90
12315;DHT22;23886;46.614;14.276;2023-03-31T09:52:16;12.50;99.90
12315;DHT22;23886;46.614;14.276;2023-03-31T09:54:49;12.20;99.90
12315;DHT22;23886;46.614;14.276;2023-03-31T09:57:23;12.30;99.90
12315;DHT22;23886;46.614;14.276;2023-03-31T09:59:51;12.60;99.90
12315;DHT22;23886;46.614;14.276;2023-03-31T10:02:43;12.50;99.90
12315;DHT22;23886;46.614;14.276;2023-03-31T10:05:38;12.20;99.90
12315;DHT22;23886;46.614;14.276;2023-03-31T10:08:23;12.40;99.90
12315;DHT22;23886;46.614;14.276;2023-03-31T10:10:54;12.70;99.90
12315;DHT22;23886;46.614;14.276;2023-03-31T10:13:23;12.70;99.90
12315;DHT22;23886;46.614;14.276;2023-03-31T10:16:01;13.10;99.90
12315;DHT22;23886;46.614;14.276;2023-03-31T10:18:33;13.20;99.90
12315;DHT22;23886;46.614;14.276;2023-03-31T10:21:02;13.20;99.90
12315;DHT22;23886;46.614;14.276;2023-03-31T10:23:31;13.00;99.90
12315;DHT22;23886;46.614;14.276;2023-03-31T10:26:01;13.00;99.90
12315;DHT22;23886;46.614;14.276;2023-03-31T10:28:32;13.00;99.90
12315;DHT22;23886;46.614;14.276;2023-03-31T10:31:00;12.90;99.90
12315;DHT22;23886;46.614;14.276;2023-03-31T10:33:30;13.00;99.90
12315;DHT22;23886;46.614;14.276;2023-03-31T10:36:01;12.80;99.90
12315;DHT22;23886;46.614;14.276;2023-03-31T10:38:33;12.80;99.90
12315;DHT22;23886;46.614;14.276;2023-03-31T10:41:03;13.00;99.90
12315;DHT22;23886;46.614;14.276;2023-03-31T10:43:36;12.90;99.90
12315;DHT22;23886;46.614;14.276;2023-03-31T10:46:05;13.50;99.90
12315;DHT22;23886;46.614;14.276;2023-03-31T10:48:33;13.50;99.90
12315;DHT22;23886;46.614;14.276;2023-03-31T10:51:04;13.30;99.90
12315;DHT22;23886;46.614;14.276;2023-03-31T10:53:39;13.50;99.90
12315;DHT22;23886;46.614;14.276;2023-03-31T10:56:36;13.40;99.90
12315;DHT22;23886;46.614;14.276;2023-03-31T10:59:17;13.60;99.90
12315;DHT22;23886;46.614;14.276;2023-03-31T11:01:55;13.80;99.90
12315;DHT22;23886;46.614;14.276;2023-03-31T11:04:40;13.70;99.90
12315;DHT22;23886;46.614;14.276;2023-03-31T11:07:16;13.80;99.90
12315;DHT22;23886;46.614;14.276;2023-03-31T11:09:53;13.90;99.90
12315;DHT22;23886;46.614;14.276;2023-03-31T11:12:29;14.10;99.90
12315;DHT22;23886;46.614;14.276;2023-03-31T11:15:08;14.30;99.90
12315;DHT22;23886;46.614;14.276;2023-03-31T11:20:37;14.00;99.90
12315;DHT22;23886;46.614;14.276;2023-03-31T11:23:14;13.90;99.90
12315;DHT22;23886;46.614;14.276;2023-03-31T11:25:48;14.10;99.90
12315;DHT22;23886;46.614;14.276;2023-03-31T11:28:47;14.30;99.90
12315;DHT22;23886;46.614;14.276;2023-03-31T11:31:30;14.40;99.90
12315;DHT22;23886;46.614;14.276;2023-03-31T11:34:12;14.50;99.90
12315;DHT22;23886;46.614;14.276;2023-03-31T11:37:08;14.60;99.90
12315;DHT22;23886;46.614;14.276;2023-03-31T11:39:47;14.80;99.90
12315;DHT22;23886;46.614;14.276;2023-03-31T11:42:21;14.70;99.90
12315;DHT22;23886;46.614;14.276;2023-03-31T11:44:57;14.80;99.90
12315;DHT22;23886;46.614;14.276;2023-03-31T11:47:29;15.00;99.90
12315;DHT22;23886;46.614;14.276;2023-03-31T11:49:59;14.80;99.90
12315;DHT22;23886;46.614;14.276;2023-03-31T11:52:29;14.50;99.90
12315;DHT22;23886;46.614;14.276;2023-03-31T11:55:01;14.30;99.90
12315;DHT22;23886;46.614;14.276;2023-03-31T11:57:32;13.90;99.90
12315;DHT22;23886;46.614;14.276;2023-03-31T12:00:06;13.90;99.90
12315;DHT22;23886;46.614;14.276;2023-03-31T12:02:43;14.10;99.90
12315;DHT22;23886;46.614;14.276;2023-03-31T12:05:12;14.40;99.90
12315;DHT22;23886;46.614;14.276;2023-03-31T12:07:42;14.60;99.90
12315;DHT22;23886;46.614;14.276;2023-03-31T12:10:18;14.60;99.90
12315;DHT22;23886;46.614;14.276;2023-03-31T12:12:50;14.30;99.90
12315;DHT22;23886;46.614;14.276;2023-03-31T12:15:22;14.00;99.90
12315;DHT22;23886;46.614;14.276;2023-03-31T12:17:56;14.10;99.90
12315;DHT22;23886;46.614;14.276;2023-03-31T12:20:29;13.80;99.90
12315;DHT22;23886;46.614;14.276;2023-03-31T12:22:58;13.90;99.90
12315;DHT22;23886;46.614;14.276;2023-03-31T12:25:39;14.00;99.90
12315;DHT22;23886;46.614;14.276;2023-03-31T12:28:09;14.20;99.90
12315;DHT22;23886;46.614;14.276;2023-03-31T12:30:40;14.00;99.90
12315;DHT22;23886;46.614;14.276;2023-03-31T12:33:14;14.00;99.90
12315;DHT22;23886;46.614;14.276;2023-03-31T12:36:02;14.00;99.90
12315;DHT22;23886;46.614;14.276;2023-03-31T12:38:40;13.90;99.90
12315;DHT22;23886;46.614;14.276;2023-03-31T12:41:11;14.00;99.90
12315;DHT22;23886;46.614;14.276;2023-03-31T12:44:22;14.20;99.90
12315;DHT22;23886;46.614;14.276;2023-03-31T12:47:07;14.20;99.90
12315;DHT22;23886;46.614;14.276;2023-03-31T12:49:58;14.50;99.50
12315;DHT22;23886;46.614;14.276;2023-03-31T12:52:37;14.60;99.80
12315;DHT22;23886;46.614;14.276;2023-03-31T12:55:31;14.60;99.30
12315;DHT22;23886;46.614;14.276;2023-03-31T12:58:34;14.60;99.90
12315;DHT22;23886;46.614;14.276;2023-03-31T13:01:04;14.90;99.40
12315;DHT22;23886;46.614;14.276;2023-03-31T13:06:50;14.50;98.50
12315;DHT22;23886;46.614;14.276;2023-03-31T13:09:54;14.20;98.90
12315;DHT22;23886;46.614;14.276;2023-03-31T13:12:23;14.60;99.10
12315;DHT22;23886;46.614;14.276;2023-03-31T13:14:53;14.40;98.70
12315;DHT22;23886;46.614;14.276;2023-03-31T13:17:26;14.10;98.90
12315;DHT22;23886;46.614;14.276;2023-03-31T13:20:10;14.00;99.20
12315;DHT22;23886;46.614;14.276;2023-03-31T13:22:43;14.10;99.10
12315;DHT22;23886;46.614;14.276;2023-03-31T13:25:40;13.90;99.40
12315;DHT22;23886;46.614;14.276;2023-03-31T13:28:33;13.80;99.80
12315;DHT22;23886;46.614;14.276;2023-03-31T13:31:05;13.80;99.60
12315;DHT22;23886;46.614;14.276;2023-03-31T13:33:45;13.90;99.80
12315;DHT22;23886;46.614;14.276;2023-03-31T13:45:14;13.90;99.30
12315;DHT22;23886;46.614;14.276;2023-03-31T13:48:19;13.80;99.20
12315;DHT22;23886;46.614;14.276;2023-03-31T13:50:59;13.80;99.30
12315;DHT22;23886;46.614;14.276;2023-03-31T13:53:50;13.70;99.70
12315;DHT22;23886;46.614;14.276;2023-03-31T13:56:47;13.80;99.70
12315;DHT22;23886;46.614;14.276;2023-03-31T14:05:36;13.50;99.60
12315;DHT22;23886;46.614;14.276;2023-03-31T14:08:08;13.50;98.90
12315;DHT22;23886;46.614;14.276;2023-03-31T14:10:39;13.50;99.00
12315;DHT22;23886;46.614;14.276;2023-03-31T14:13:09;13.40;98.80
12315;DHT22;23886;46.614;14.276;2023-03-31T14:15:39;13.40;98.90
12315;DHT22;23886;46.614;14.276;2023-03-31T14:18:06;13.40;98.50
12315;DHT22;23886;46.614;14.276;2023-03-31T14:23:47;13.50;99.20
12315;DHT22;23886;46.614;14.276;2023-03-31T14:26:24;13.50;98.30
12315;DHT22;23886;46.614;14.276;2023-03-31T14:29:04;13.40;98.50
12315;DHT22;23886;46.614;14.276;2023-03-31T14:31:39;13.40;98.60
12315;DHT22;23886;46.614;14.276;2023-03-31T14:34:37;13.30;98.50
12315;DHT22;23886;46.614;14.276;2023-03-31T14:37:09;13.30;98.70
12315;DHT22;23886;46.614;14.276;2023-03-31T14:39:41;13.20;98.80
12315;DHT22;23886;46.614;14.276;2023-03-31T14:42:13;13.10;98.40
12315;DHT22;23886;46.614;14.276;2023-03-31T14:44:41;13.20;98.50
12315;DHT22;23886;46.614;14.276;2023-03-31T14:47:14;13.20;99.20
12315;DHT22;23886;46.614;14.276;2023-03-31T14:49:41;13.10;98.60
12315;DHT22;23886;46.614;14.276;2023-03-31T14:52:14;13.00;98.70
12315;DHT22;23886;46.614;14.276;2023-03-31T14:54:43;13.00;98.80
12315;DHT22;23886;46.614;14.276;2023-03-31T14:57:16;13.00;99.00
12315;DHT22;23886;46.614;14.276;2023-03-31T14:59:46;13.00;98.70
12315;DHT22;23886;46.614;14.276;2023-03-31T15:02:16;13.00;98.80
12315;DHT22;23886;46.614;14.276;2023-03-31T15:04:46;13.10;98.80
12315;DHT22;23886;46.614;14.276;2023-03-31T15:07:16;13.10;98.70
12315;DHT22;23886;46.614;14.276;2023-03-31T15:09:47;13.10;98.80
12315;DHT22;23886;46.614;14.276;2023-03-31T15:12:18;13.30;98.40
12315;DHT22;23886;46.614;14.276;2023-03-31T15:14:48;13.40;98.30
12315;DHT22;23886;46.614;14.276;2023-03-31T15:17:19;13.70;98.00
12315;DHT22;23886;46.614;14.276;2023-03-31T15:19:52;13.90;97.60
12315;DHT22;23886;46.614;14.276;2023-03-31T15:22:21;13.90;97.30
12315;DHT22;23886;46.614;14.276;2023-03-31T15:24:49;13.80;97.30
12315;DHT22;23886;46.614;14.276;2023-03-31T15:27:23;13.80;97.90
12315;DHT22;23886;46.614;14.276;2023-03-31T15:30:02;14.10;97.30
12315;DHT22;23886;46.614;14.276;2023-03-31T15:32:33;15.70;96.00
12315;DHT22;23886;46.614;14.276;2023-03-31T15:35:01;15.70;95.00
12315;DHT22;23886;46.614;14.276;2023-03-31T15:37:36;14.70;95.30
12315;DHT22;23886;46.614;14.276;2023-03-31T15:40:16;14.20;96.00
12315;DHT22;23886;46.614;14.276;2023-03-31T15:42:47;13.70;96.20
12315;DHT22;23886;46.614;14.276;2023-03-31T15:45:35;13.60;96.90
12315;DHT22;23886;46.614;14.276;2023-03-31T15:48:04;13.90;96.90
12315;DHT22;23886;46.614;14.276;2023-03-31T15:50:32;13.60;96.70
12315;DHT22;23886;46.614;14.276;2023-03-31T15:53:00;13.40;97.10
12315;DHT22;23886;46.614;14.276;2023-03-31T15:55:30;13.40;97.80
12315;DHT22;23886;46.614;14.276;2023-03-31T15:58:00;13.30;98.10
12315;DHT22;23886;46.614;14.276;2023-03-31T16:00:42;13.20;98.70
12315;DHT22;23886;46.614;14.276;2023-03-31T16:03:15;13.10;98.70
12315;DHT22;23886;46.614;14.276;2023-03-31T16:05:50;13.00;98.30
12315;DHT22;23886;46.614;14.276;2023-03-31T16:08:23;12.80;98.70
12315;DHT22;23886;46.614;14.276;2023-03-31T16:10:57;12.80;98.30
12315;DHT22;23886;46.614;14.276;2023-03-31T16:13:28;12.70;99.10
12315;DHT22;23886;46.614;14.276;2023-03-31T16:15:58;12.70;98.60
12315;DHT22;23886;46.614;14.276;2023-03-31T16:18:30;12.60;99.10
12315;DHT22;23886;46.614;14.276;2023-03-31T16:21:01;12.60;98.90
12315;DHT22;23886;46.614;14.276;2023-03-31T16:23:31;12.50;99.30
12315;DHT22;23886;46.614;14.276;2023-03-31T16:26:00;12.50;99.30
12315;DHT22;23886;46.614;14.276;2023-03-31T16:28:35;12.50;98.50
12315;DHT22;23886;46.614;14.276;2023-03-31T16:31:03;12.50;98.30
12315;DHT22;23886;46.614;14.276;2023-03-31T16:33:53;12.50;98.30